Aérodrome :
LOGIN :

S'inscrire | Disclaimer

   EN    FR    IT 

 










Légende :    VFR   VFR Marginal   IFR   IFR Intensif   IFR Très Intensif
Visi : 
Plafond : 
>= 8 km
>= 3000ft
5 à 8 km
1000 à 3000 ft
1500m à 5 km
500 à 1000 ft
800 à 1500m
200 à 500 ft
< 800m
< 200 ft
Symboles :   Orages  Brouillard  Fortes neiges  Fortes précipitations  Vent > 20 kt
SIGMETs :   Divers  Orages  Givrage  Turbulence  Onde Orograph.  Cendres Volcan.






- Altitude de l'aérodrome : 15 ft
- Code IATA : FCO


LIRF - Roma Leonardo da Vinci Fiumicino

DERNIER METAR :
  • 230150Z 06004KT 6000 FEW015 05/05 Q1029 NOSIG

METARs EXPIRÉS :
  • 230120Z 09003KT 6000 NSC 06/05 Q1029 NOSIG
  • 230050Z 08005KT 6000 NSC 05/05 Q1030 NOSIG
  • 230020Z 08004KT 4000 R16L/P1500N R16R/1300U R25/P1500N R34R/P1500N BR NSC 05/05 Q1030 NOSIG
  • 222350Z 10003KT 3000 BR FEW015 06/06 Q1030 NOSIG
  • 222320Z 09003KT 3000 R16L/P1500N R16R/1400D R25/P1500N R34R/P1500N BR NSC 06/06 Q1030 NOSIG
  • 222250Z 07005KT 2000 BR NSC 06/06 Q1030 NOSIG

TAF AMD TAF LIRF
Valide du 23 à 01h jusqu'au 24 à 06h UTC


230147Z 2301/2406 VRB05KT 6000 NSC
TEMPO 2301/2306 3000 BR
TEMPO 2400/2406 3000 BR



MET'MAP, la Météo Aéronautique d'un coup d'oeil ! - Copyright ORBIFLY Décembre 2007 - Disclaimer

ORBIFLY MET'MAP TEAM :

Programmation & Développement : Alexandra Zaïnal
Sur une idée originale de : Baudouin d'Aumeries
Assistance à la programmation : Marc-Olivier Méhu
Soutien technique & logistique : Manuel Goepfert

Contact : metmap@orbifly.com




SOURCES & CREDITS :

   NOAA